sensor_id;sensor_type;location;lat;lon;timestamp;P1;durP1;ratioP1;P2;durP2;ratioP2
8592;SDS011;4334;49.982;8.398;2023-03-01T00:00:11;19.70;;;9.60;;
8592;SDS011;4334;49.982;8.398;2023-03-01T00:02:39;19.10;;;10.20;;
8592;SDS011;4334;49.982;8.398;2023-03-01T00:05:07;18.83;;;9.77;;
8592;SDS011;4334;49.982;8.398;2023-03-01T00:07:34;17.73;;;10.10;;
8592;SDS011;4334;49.982;8.398;2023-03-01T00:10:01;22.83;;;10.93;;
8592;SDS011;4334;49.982;8.398;2023-03-01T00:12:27;17.10;;;9.40;;
8592;SDS011;4334;49.982;8.398;2023-03-01T00:14:54;16.97;;;10.07;;
8592;SDS011;4334;49.982;8.398;2023-03-01T00:17:21;18.43;;;10.07;;
8592;SDS011;4334;49.982;8.398;2023-03-01T00:19:47;16.70;;;10.20;;
8592;SDS011;4334;49.982;8.398;2023-03-01T00:22:15;17.43;;;10.20;;
8592;SDS011;4334;49.982;8.398;2023-03-01T00:24:42;19.33;;;9.73;;
8592;SDS011;4334;49.982;8.398;2023-03-01T00:27:09;16.27;;;9.93;;
8592;SDS011;4334;49.982;8.398;2023-03-01T00:29:36;16.27;;;9.53;;
8592;SDS011;4334;49.982;8.398;2023-03-01T00:32:02;20.03;;;10.50;;
8592;SDS011;4334;49.982;8.398;2023-03-01T00:34:29;20.20;;;11.17;;
8592;SDS011;4334;49.982;8.398;2023-03-01T00:36:56;19.67;;;11.10;;
8592;SDS011;4334;49.982;8.398;2023-03-01T00:39:31;23.60;;;11.47;;
8592;SDS011;4334;49.982;8.398;2023-03-01T00:41:58;15.70;;;9.60;;
8592;SDS011;4334;49.982;8.398;2023-03-01T00:44:25;17.33;;;10.17;;
8592;SDS011;4334;49.982;8.398;2023-03-01T00:46:53;20.43;;;10.73;;
8592;SDS011;4334;49.982;8.398;2023-03-01T00:49:19;19.10;;;11.03;;
8592;SDS011;4334;49.982;8.398;2023-03-01T00:51:49;18.07;;;10.20;;
8592;SDS011;4334;49.982;8.398;2023-03-01T00:54:16;19.83;;;11.00;;
8592;SDS011;4334;49.982;8.398;2023-03-01T00:56:44;16.97;;;10.30;;
8592;SDS011;4334;49.982;8.398;2023-03-01T00:59:10;19.27;;;9.70;;
8592;SDS011;4334;49.982;8.398;2023-03-01T01:01:37;19.73;;;10.40;;
8592;SDS011;4334;49.982;8.398;2023-03-01T01:04:04;17.70;;;10.27;;
8592;SDS011;4334;49.982;8.398;2023-03-01T01:06:34;17.60;;;9.77;;
8592;SDS011;4334;49.982;8.398;2023-03-01T01:09:02;17.60;;;10.30;;
8592;SDS011;4334;49.982;8.398;2023-03-01T01:11:31;15.23;;;10.00;;
8592;SDS011;4334;49.982;8.398;2023-03-01T01:14:01;17.00;;;10.03;;
8592;SDS011;4334;49.982;8.398;2023-03-01T01:16:29;17.97;;;10.70;;
8592;SDS011;4334;49.982;8.398;2023-03-01T01:18:56;18.47;;;10.57;;
8592;SDS011;4334;49.982;8.398;2023-03-01T01:21:23;19.63;;;10.23;;
8592;SDS011;4334;49.982;8.398;2023-03-01T01:23:52;17.07;;;10.23;;
8592;SDS011;4334;49.982;8.398;2023-03-01T01:26:20;17.73;;;10.17;;
8592;SDS011;4334;49.982;8.398;2023-03-01T01:28:48;16.50;;;10.30;;
8592;SDS011;4334;49.982;8.398;2023-03-01T01:31:16;19.60;;;10.77;;
8592;SDS011;4334;49.982;8.398;2023-03-01T01:33:44;17.57;;;10.20;;
8592;SDS011;4334;49.982;8.398;2023-03-01T01:36:12;19.63;;;10.40;;
8592;SDS011;4334;49.982;8.398;2023-03-01T01:38:39;16.47;;;9.63;;
8592;SDS011;4334;49.982;8.398;2023-03-01T01:41:08;17.80;;;10.57;;
8592;SDS011;4334;49.982;8.398;2023-03-01T01:43:37;18.37;;;10.40;;
8592;SDS011;4334;49.982;8.398;2023-03-01T01:46:07;17.40;;;10.30;;
8592;SDS011;4334;49.982;8.398;2023-03-01T01:48:44;16.77;;;9.80;;
8592;SDS011;4334;49.982;8.398;2023-03-01T01:51:17;19.47;;;10.00;;
8592;SDS011;4334;49.982;8.398;2023-03-01T01:53:47;15.70;;;9.93;;
8592;SDS011;4334;49.982;8.398;2023-03-01T01:56:17;20.10;;;10.90;;
8592;SDS011;4334;49.982;8.398;2023-03-01T01:58:45;18.33;;;10.17;;
8592;SDS011;4334;49.982;8.398;2023-03-01T02:01:13;17.80;;;9.93;;
8592;SDS011;4334;49.982;8.398;2023-03-01T02:03:40;15.43;;;9.50;;
8592;SDS011;4334;49.982;8.398;2023-03-01T02:06:12;17.47;;;9.87;;
8592;SDS011;4334;49.982;8.398;2023-03-01T02:08:45;17.70;;;10.60;;
8592;SDS011;4334;49.982;8.398;2023-03-01T02:11:14;15.93;;;9.57;;
8592;SDS011;4334;49.982;8.398;2023-03-01T02:13:43;17.83;;;10.23;;
8592;SDS011;4334;49.982;8.398;2023-03-01T02:16:11;20.90;;;11.13;;
8592;SDS011;4334;49.982;8.398;2023-03-01T02:18:40;18.90;;;10.07;;
8592;SDS011;4334;49.982;8.398;2023-03-01T02:21:11;19.77;;;10.60;;
8592;SDS011;4334;49.982;8.398;2023-03-01T02:23:47;18.13;;;10.53;;
8592;SDS011;4334;49.982;8.398;2023-03-01T02:26:17;19.90;;;10.57;;
8592;SDS011;4334;49.982;8.398;2023-03-01T02:28:48;17.97;;;10.57;;
8592;SDS011;4334;49.982;8.398;2023-03-01T02:31:16;19.17;;;11.27;;
8592;SDS011;4334;49.982;8.398;2023-03-01T02:34:02;17.07;;;10.10;;
8592;SDS011;4334;49.982;8.398;2023-03-01T02:36:31;19.30;;;11.37;;
8592;SDS011;4334;49.982;8.398;2023-03-01T02:39:03;20.50;;;11.03;;
8592;SDS011;4334;49.982;8.398;2023-03-01T02:41:35;18.07;;;11.03;;
8592;SDS011;4334;49.982;8.398;2023-03-01T02:44:05;20.47;;;11.60;;
8592;SDS011;4334;49.982;8.398;2023-03-01T02:46:32;19.57;;;11.13;;
8592;SDS011;4334;49.982;8.398;2023-03-01T02:48:59;18.40;;;11.07;;
8592;SDS011;4334;49.982;8.398;2023-03-01T02:51:41;18.87;;;10.73;;
8592;SDS011;4334;49.982;8.398;2023-03-01T02:54:13;21.50;;;11.47;;
8592;SDS011;4334;49.982;8.398;2023-03-01T02:56:47;19.47;;;11.87;;
8592;SDS011;4334;49.982;8.398;2023-03-01T02:59:18;19.13;;;10.63;;
8592;SDS011;4334;49.982;8.398;2023-03-01T03:01:47;19.97;;;11.20;;
8592;SDS011;4334;49.982;8.398;2023-03-01T03:04:14;19.67;;;11.63;;
8592;SDS011;4334;49.982;8.398;2023-03-01T03:06:43;18.90;;;11.10;;
8592;SDS011;4334;49.982;8.398;2023-03-01T03:09:11;17.70;;;11.13;;
8592;SDS011;4334;49.982;8.398;2023-03-01T03:11:38;20.63;;;11.63;;
8592;SDS011;4334;49.982;8.398;2023-03-01T03:14:06;21.60;;;11.27;;
8592;SDS011;4334;49.982;8.398;2023-03-01T03:16:39;18.43;;;11.03;;
8592;SDS011;4334;49.982;8.398;2023-03-01T03:19:06;21.17;;;11.37;;
8592;SDS011;4334;49.982;8.398;2023-03-01T03:21:33;19.63;;;11.83;;
8592;SDS011;4334;49.982;8.398;2023-03-01T03:24:00;24.40;;;12.43;;
8592;SDS011;4334;49.982;8.398;2023-03-01T03:26:27;20.33;;;11.33;;
8592;SDS011;4334;49.982;8.398;2023-03-01T03:28:54;21.37;;;12.10;;
8592;SDS011;4334;49.982;8.398;2023-03-01T03:31:22;19.10;;;11.50;;
8592;SDS011;4334;49.982;8.398;2023-03-01T03:33:50;21.60;;;11.37;;
8592;SDS011;4334;49.982;8.398;2023-03-01T03:36:17;18.90;;;11.27;;
8592;SDS011;4334;49.982;8.398;2023-03-01T03:38:45;20.77;;;10.93;;
8592;SDS011;4334;49.982;8.398;2023-03-01T03:41:12;22.40;;;11.73;;
8592;SDS011;4334;49.982;8.398;2023-03-01T03:43:40;21.93;;;11.83;;
8592;SDS011;4334;49.982;8.398;2023-03-01T03:46:08;18.03;;;11.17;;
8592;SDS011;4334;49.982;8.398;2023-03-01T03:48:36;20.73;;;12.00;;
8592;SDS011;4334;49.982;8.398;2023-03-01T03:51:06;22.43;;;12.80;;
8592;SDS011;4334;49.982;8.398;2023-03-01T03:53:33;19.40;;;11.97;;
8592;SDS011;4334;49.982;8.398;2023-03-01T03:55:59;20.93;;;12.17;;
8592;SDS011;4334;49.982;8.398;2023-03-01T03:58:26;20.17;;;12.37;;
8592;SDS011;4334;49.982;8.398;2023-03-01T04:00:54;23.10;;;12.47;;
8592;SDS011;4334;49.982;8.398;2023-03-01T04:03:22;21.60;;;11.93;;
8592;SDS011;4334;49.982;8.398;2023-03-01T04:05:50;17.90;;;11.23;;
8592;SDS011;4334;49.982;8.398;2023-03-01T04:08:19;22.67;;;12.53;;
8592;SDS011;4334;49.982;8.398;2023-03-01T04:10:48;22.30;;;11.87;;
8592;SDS011;4334;49.982;8.398;2023-03-01T04:13:17;21.47;;;11.90;;
8592;SDS011;4334;49.982;8.398;2023-03-01T04:15:45;23.33;;;12.33;;
8592;SDS011;4334;49.982;8.398;2023-03-01T04:18:13;21.67;;;11.60;;
8592;SDS011;4334;49.982;8.398;2023-03-01T04:20:40;23.03;;;12.33;;
8592;SDS011;4334;49.982;8.398;2023-03-01T04:23:10;23.43;;;12.57;;
8592;SDS011;4334;49.982;8.398;2023-03-01T04:25:42;22.37;;;12.53;;
8592;SDS011;4334;49.982;8.398;2023-03-01T04:28:14;17.50;;;11.00;;
8592;SDS011;4334;49.982;8.398;2023-03-01T04:30:41;21.50;;;11.20;;
8592;SDS011;4334;49.982;8.398;2023-03-01T04:33:08;22.57;;;12.27;;
8592;SDS011;4334;49.982;8.398;2023-03-01T04:35:36;20.30;;;12.00;;
8592;SDS011;4334;49.982;8.398;2023-03-01T04:38:05;23.47;;;12.27;;
8592;SDS011;4334;49.982;8.398;2023-03-01T04:40:32;20.50;;;11.73;;
8592;SDS011;4334;49.982;8.398;2023-03-01T04:43:00;20.87;;;12.10;;
8592;SDS011;4334;49.982;8.398;2023-03-01T04:45:28;22.13;;;10.57;;
8592;SDS011;4334;49.982;8.398;2023-03-01T04:47:55;20.17;;;11.87;;
8592;SDS011;4334;49.982;8.398;2023-03-01T04:50:23;23.00;;;12.00;;
8592;SDS011;4334;49.982;8.398;2023-03-01T04:52:50;19.57;;;11.70;;
8592;SDS011;4334;49.982;8.398;2023-03-01T04:55:18;20.60;;;11.33;;
8592;SDS011;4334;49.982;8.398;2023-03-01T04:57:44;23.70;;;13.43;;
8592;SDS011;4334;49.982;8.398;2023-03-01T05:00:13;23.93;;;12.20;;
8592;SDS011;4334;49.982;8.398;2023-03-01T05:02:46;22.20;;;12.17;;
8592;SDS011;4334;49.982;8.398;2023-03-01T05:05:18;25.23;;;13.23;;
8592;SDS011;4334;49.982;8.398;2023-03-01T05:07:46;23.93;;;12.77;;
8592;SDS011;4334;49.982;8.398;2023-03-01T05:10:13;24.33;;;12.47;;
8592;SDS011;4334;49.982;8.398;2023-03-01T05:12:40;26.13;;;13.10;;
8592;SDS011;4334;49.982;8.398;2023-03-01T05:15:07;23.50;;;13.43;;
8592;SDS011;4334;49.982;8.398;2023-03-01T05:17:35;22.13;;;12.63;;
8592;SDS011;4334;49.982;8.398;2023-03-01T05:20:02;20.97;;;12.20;;
8592;SDS011;4334;49.982;8.398;2023-03-01T05:22:32;22.73;;;12.57;;
8592;SDS011;4334;49.982;8.398;2023-03-01T05:24:59;21.40;;;11.57;;
8592;SDS011;4334;49.982;8.398;2023-03-01T05:27:26;22.83;;;12.50;;
8592;SDS011;4334;49.982;8.398;2023-03-01T05:29:54;22.40;;;12.60;;
8592;SDS011;4334;49.982;8.398;2023-03-01T05:32:21;22.20;;;12.63;;
8592;SDS011;4334;49.982;8.398;2023-03-01T05:34:49;25.57;;;12.87;;
8592;SDS011;4334;49.982;8.398;2023-03-01T05:37:17;25.53;;;12.93;;
8592;SDS011;4334;49.982;8.398;2023-03-01T05:39:44;24.03;;;12.47;;
8592;SDS011;4334;49.982;8.398;2023-03-01T05:42:11;22.17;;;13.63;;
8592;SDS011;4334;49.982;8.398;2023-03-01T05:44:38;22.80;;;12.57;;
8592;SDS011;4334;49.982;8.398;2023-03-01T05:47:05;24.00;;;12.97;;
8592;SDS011;4334;49.982;8.398;2023-03-01T05:49:32;23.03;;;13.07;;
8592;SDS011;4334;49.982;8.398;2023-03-01T05:52:01;23.87;;;13.37;;
8592;SDS011;4334;49.982;8.398;2023-03-01T05:54:27;23.73;;;12.80;;
8592;SDS011;4334;49.982;8.398;2023-03-01T05:56:54;25.07;;;11.97;;
8592;SDS011;4334;49.982;8.398;2023-03-01T05:59:21;22.70;;;12.77;;
8592;SDS011;4334;49.982;8.398;2023-03-01T06:01:48;21.87;;;12.53;;
8592;SDS011;4334;49.982;8.398;2023-03-01T06:04:15;21.43;;;13.13;;
8592;SDS011;4334;49.982;8.398;2023-03-01T06:06:41;23.03;;;12.40;;
8592;SDS011;4334;49.982;8.398;2023-03-01T06:09:09;21.37;;;12.93;;
8592;SDS011;4334;49.982;8.398;2023-03-01T06:11:36;21.27;;;12.63;;
8592;SDS011;4334;49.982;8.398;2023-03-01T06:14:03;23.73;;;13.07;;
8592;SDS011;4334;49.982;8.398;2023-03-01T06:16:32;22.70;;;12.87;;
8592;SDS011;4334;49.982;8.398;2023-03-01T06:18:59;27.00;;;12.23;;
8592;SDS011;4334;49.982;8.398;2023-03-01T06:21:26;21.30;;;12.00;;
8592;SDS011;4334;49.982;8.398;2023-03-01T06:23:53;23.47;;;12.53;;
8592;SDS011;4334;49.982;8.398;2023-03-01T06:26:21;24.73;;;12.30;;
8592;SDS011;4334;49.982;8.398;2023-03-01T06:28:48;18.30;;;11.57;;
8592;SDS011;4334;49.982;8.398;2023-03-01T06:31:15;22.33;;;12.07;;
8592;SDS011;4334;49.982;8.398;2023-03-01T06:33:43;24.27;;;11.97;;
8592;SDS011;4334;49.982;8.398;2023-03-01T06:36:10;22.13;;;11.97;;
8592;SDS011;4334;49.982;8.398;2023-03-01T06:38:37;21.20;;;11.93;;
8592;SDS011;4334;49.982;8.398;2023-03-01T06:41:05;22.10;;;12.53;;
8592;SDS011;4334;49.982;8.398;2023-03-01T06:43:34;21.87;;;12.37;;
8592;SDS011;4334;49.982;8.398;2023-03-01T06:46:03;21.37;;;11.30;;
8592;SDS011;4334;49.982;8.398;2023-03-01T06:48:31;21.30;;;11.40;;
8592;SDS011;4334;49.982;8.398;2023-03-01T06:50:58;21.17;;;11.90;;
8592;SDS011;4334;49.982;8.398;2023-03-01T06:53:25;25.53;;;12.30;;
8592;SDS011;4334;49.982;8.398;2023-03-01T06:55:53;21.80;;;12.23;;
8592;SDS011;4334;49.982;8.398;2023-03-01T06:58:21;24.97;;;12.57;;
8592;SDS011;4334;49.982;8.398;2023-03-01T07:00:49;22.33;;;12.63;;
8592;SDS011;4334;49.982;8.398;2023-03-01T07:03:15;21.30;;;12.37;;
8592;SDS011;4334;49.982;8.398;2023-03-01T07:05:42;23.50;;;13.03;;
8592;SDS011;4334;49.982;8.398;2023-03-01T07:08:09;22.90;;;12.43;;
8592;SDS011;4334;49.982;8.398;2023-03-01T07:10:36;21.53;;;12.83;;
8592;SDS011;4334;49.982;8.398;2023-03-01T07:13:03;25.73;;;12.20;;
8592;SDS011;4334;49.982;8.398;2023-03-01T07:15:31;23.80;;;12.07;;
8592;SDS011;4334;49.982;8.398;2023-03-01T07:18:00;22.87;;;11.80;;
8592;SDS011;4334;49.982;8.398;2023-03-01T07:20:27;21.93;;;12.17;;
8592;SDS011;4334;49.982;8.398;2023-03-01T07:22:54;22.10;;;12.53;;
8592;SDS011;4334;49.982;8.398;2023-03-01T07:25:23;25.83;;;12.10;;
8592;SDS011;4334;49.982;8.398;2023-03-01T07:27:50;19.57;;;11.40;;
8592;SDS011;4334;49.982;8.398;2023-03-01T07:30:17;19.77;;;11.50;;
8592;SDS011;4334;49.982;8.398;2023-03-01T07:32:44;23.57;;;12.67;;
8592;SDS011;4334;49.982;8.398;2023-03-01T07:35:13;23.10;;;12.60;;
8592;SDS011;4334;49.982;8.398;2023-03-01T07:37:40;19.13;;;11.83;;
8592;SDS011;4334;49.982;8.398;2023-03-01T07:40:08;22.70;;;12.07;;
8592;SDS011;4334;49.982;8.398;2023-03-01T07:42:35;18.50;;;11.67;;
8592;SDS011;4334;49.982;8.398;2023-03-01T07:45:02;19.70;;;11.30;;
8592;SDS011;4334;49.982;8.398;2023-03-01T07:47:30;19.20;;;11.40;;
8592;SDS011;4334;49.982;8.398;2023-03-01T07:49:57;24.60;;;11.40;;
8592;SDS011;4334;49.982;8.398;2023-03-01T07:52:25;19.23;;;11.30;;
8592;SDS011;4334;49.982;8.398;2023-03-01T07:54:52;20.17;;;11.60;;
8592;SDS011;4334;49.982;8.398;2023-03-01T07:57:19;19.10;;;10.77;;
8592;SDS011;4334;49.982;8.398;2023-03-01T07:59:46;17.43;;;11.00;;
8592;SDS011;4334;49.982;8.398;2023-03-01T08:02:13;18.43;;;11.90;;
8592;SDS011;4334;49.982;8.398;2023-03-01T08:04:40;18.77;;;11.30;;
8592;SDS011;4334;49.982;8.398;2023-03-01T08:07:07;22.67;;;11.50;;
8592;SDS011;4334;49.982;8.398;2023-03-01T08:09:35;20.60;;;12.00;;
8592;SDS011;4334;49.982;8.398;2023-03-01T08:12:02;19.30;;;11.63;;
8592;SDS011;4334;49.982;8.398;2023-03-01T08:14:30;18.03;;;11.47;;
8592;SDS011;4334;49.982;8.398;2023-03-01T08:16:57;18.00;;;11.20;;
8592;SDS011;4334;49.982;8.398;2023-03-01T08:19:24;16.87;;;11.03;;
8592;SDS011;4334;49.982;8.398;2023-03-01T08:21:53;17.90;;;11.00;;
8592;SDS011;4334;49.982;8.398;2023-03-01T08:24:19;19.00;;;11.83;;
8592;SDS011;4334;49.982;8.398;2023-03-01T08:26:48;17.93;;;11.43;;
8592;SDS011;4334;49.982;8.398;2023-03-01T08:29:15;20.83;;;11.40;;
8592;SDS011;4334;49.982;8.398;2023-03-01T08:31:42;17.20;;;11.60;;
8592;SDS011;4334;49.982;8.398;2023-03-01T08:34:09;19.37;;;11.50;;
8592;SDS011;4334;49.982;8.398;2023-03-01T08:36:38;16.53;;;10.43;;
8592;SDS011;4334;49.982;8.398;2023-03-01T08:39:07;19.67;;;12.57;;
8592;SDS011;4334;49.982;8.398;2023-03-01T08:41:35;19.40;;;11.40;;
8592;SDS011;4334;49.982;8.398;2023-03-01T08:44:03;18.03;;;11.97;;
8592;SDS011;4334;49.982;8.398;2023-03-01T08:46:32;19.43;;;11.67;;
8592;SDS011;4334;49.982;8.398;2023-03-01T08:49:02;20.70;;;11.90;;
8592;SDS011;4334;49.982;8.398;2023-03-01T08:51:29;22.27;;;10.43;;
8592;SDS011;4334;49.982;8.398;2023-03-01T08:53:57;15.97;;;10.37;;
8592;SDS011;4334;49.982;8.398;2023-03-01T08:56:24;15.90;;;10.27;;
8592;SDS011;4334;49.982;8.398;2023-03-01T08:58:51;18.20;;;11.77;;
8592;SDS011;4334;49.982;8.398;2023-03-01T09:01:19;16.20;;;11.27;;
8592;SDS011;4334;49.982;8.398;2023-03-01T09:03:46;17.47;;;11.83;;
8592;SDS011;4334;49.982;8.398;2023-03-01T09:06:13;16.53;;;11.27;;
8592;SDS011;4334;49.982;8.398;2023-03-01T09:08:41;17.27;;;11.30;;
8592;SDS011;4334;49.982;8.398;2023-03-01T09:11:09;17.27;;;10.37;;
8592;SDS011;4334;49.982;8.398;2023-03-01T09:13:37;17.77;;;11.17;;
8592;SDS011;4334;49.982;8.398;2023-03-01T09:16:05;16.57;;;11.23;;
8592;SDS011;4334;49.982;8.398;2023-03-01T09:18:35;16.90;;;10.50;;
8592;SDS011;4334;49.982;8.398;2023-03-01T09:21:02;17.47;;;11.13;;
8592;SDS011;4334;49.982;8.398;2023-03-01T09:23:32;15.80;;;10.23;;
8592;SDS011;4334;49.982;8.398;2023-03-01T09:25:59;16.13;;;10.87;;
8592;SDS011;4334;49.982;8.398;2023-03-01T09:28:26;18.10;;;11.40;;
8592;SDS011;4334;49.982;8.398;2023-03-01T09:30:52;16.33;;;10.80;;
8592;SDS011;4334;49.982;8.398;2023-03-01T09:33:19;16.67;;;10.90;;
8592;SDS011;4334;49.982;8.398;2023-03-01T09:35:47;17.80;;;11.70;;
8592;SDS011;4334;49.982;8.398;2023-03-01T09:38:14;19.17;;;11.73;;
8592;SDS011;4334;49.982;8.398;2023-03-01T09:40:42;20.83;;;10.80;;
8592;SDS011;4334;49.982;8.398;2023-03-01T09:43:13;17.47;;;11.10;;
8592;SDS011;4334;49.982;8.398;2023-03-01T09:45:46;16.77;;;11.77;;
8592;SDS011;4334;49.982;8.398;2023-03-01T09:48:16;16.50;;;11.03;;
8592;SDS011;4334;49.982;8.398;2023-03-01T09:50:48;17.57;;;11.33;;
8592;SDS011;4334;49.982;8.398;2023-03-01T09:53:17;14.63;;;10.80;;
8592;SDS011;4334;49.982;8.398;2023-03-01T09:55:47;18.27;;;12.00;;
8592;SDS011;4334;49.982;8.398;2023-03-01T09:58:29;16.90;;;11.17;;
8592;SDS011;4334;49.982;8.398;2023-03-01T10:01:08;16.50;;;11.17;;
8592;SDS011;4334;49.982;8.398;2023-03-01T10:03:47;18.40;;;12.00;;
8592;SDS011;4334;49.982;8.398;2023-03-01T10:06:26;18.87;;;11.20;;
8592;SDS011;4334;49.982;8.398;2023-03-01T10:08:53;17.50;;;11.67;;
8592;SDS011;4334;49.982;8.398;2023-03-01T10:11:23;16.60;;;11.47;;
8592;SDS011;4334;49.982;8.398;2023-03-01T10:13:55;16.97;;;11.17;;
8592;SDS011;4334;49.982;8.398;2023-03-01T10:16:26;17.63;;;11.73;;
8592;SDS011;4334;49.982;8.398;2023-03-01T10:19:00;18.50;;;11.77;;
8592;SDS011;4334;49.982;8.398;2023-03-01T10:21:31;16.77;;;11.87;;
8592;SDS011;4334;49.982;8.398;2023-03-01T10:24:08;15.77;;;10.93;;
8592;SDS011;4334;49.982;8.398;2023-03-01T10:26:46;17.40;;;11.40;;
8592;SDS011;4334;49.982;8.398;2023-03-01T10:29:19;19.30;;;11.50;;
8592;SDS011;4334;49.982;8.398;2023-03-01T10:31:51;15.80;;;11.23;;
8592;SDS011;4334;49.982;8.398;2023-03-01T10:34:21;17.80;;;12.00;;
8592;SDS011;4334;49.982;8.398;2023-03-01T10:36:55;19.20;;;11.73;;
8592;SDS011;4334;49.982;8.398;2023-03-01T10:39:27;17.90;;;11.50;;
8592;SDS011;4334;49.982;8.398;2023-03-01T10:41:55;18.37;;;11.63;;
8592;SDS011;4334;49.982;8.398;2023-03-01T10:44:41;17.93;;;12.13;;
8592;SDS011;4334;49.982;8.398;2023-03-01T10:47:14;17.20;;;11.27;;
8592;SDS011;4334;49.982;8.398;2023-03-01T10:49:58;18.83;;;11.37;;
8592;SDS011;4334;49.982;8.398;2023-03-01T10:52:29;21.27;;;11.67;;
8592;SDS011;4334;49.982;8.398;2023-03-01T10:54:59;17.90;;;11.33;;
8592;SDS011;4334;49.982;8.398;2023-03-01T10:57:30;16.80;;;11.53;;
8592;SDS011;4334;49.982;8.398;2023-03-01T11:00:16;15.43;;;10.90;;
8592;SDS011;4334;49.982;8.398;2023-03-01T11:02:50;21.23;;;12.17;;
8592;SDS011;4334;49.982;8.398;2023-03-01T11:05:28;17.97;;;10.60;;
8592;SDS011;4334;49.982;8.398;2023-03-01T11:08:00;17.00;;;11.27;;
8592;SDS011;4334;49.982;8.398;2023-03-01T11:10:29;18.13;;;11.83;;
8592;SDS011;4334;49.982;8.398;2023-03-01T11:13:05;16.10;;;11.70;;
8592;SDS011;4334;49.982;8.398;2023-03-01T11:15:34;16.63;;;11.53;;
8592;SDS011;4334;49.982;8.398;2023-03-01T11:18:02;15.93;;;11.40;;
8592;SDS011;4334;49.982;8.398;2023-03-01T11:20:29;17.50;;;11.83;;
8592;SDS011;4334;49.982;8.398;2023-03-01T11:23:01;15.17;;;11.30;;
8592;SDS011;4334;49.982;8.398;2023-03-01T11:25:32;15.67;;;11.10;;
8592;SDS011;4334;49.982;8.398;2023-03-01T11:28:03;14.40;;;10.67;;
8592;SDS011;4334;49.982;8.398;2023-03-01T11:30:32;16.50;;;11.80;;
8592;SDS011;4334;49.982;8.398;2023-03-01T11:33:07;15.97;;;10.63;;
8592;SDS011;4334;49.982;8.398;2023-03-01T11:35:44;16.27;;;11.50;;
8592;SDS011;4334;49.982;8.398;2023-03-01T11:38:18;14.83;;;10.93;;
8592;SDS011;4334;49.982;8.398;2023-03-01T11:40:49;17.13;;;11.90;;
8592;SDS011;4334;49.982;8.398;2023-03-01T11:43:26;15.30;;;11.57;;
8592;SDS011;4334;49.982;8.398;2023-03-01T11:46:02;17.93;;;11.27;;
8592;SDS011;4334;49.982;8.398;2023-03-01T11:48:52;14.53;;;10.50;;
8592;SDS011;4334;49.982;8.398;2023-03-01T11:51:35;15.27;;;10.97;;
8592;SDS011;4334;49.982;8.398;2023-03-01T11:54:20;14.60;;;10.83;;
8592;SDS011;4334;49.982;8.398;2023-03-01T11:56:55;16.93;;;11.63;;
8592;SDS011;4334;49.982;8.398;2023-03-01T11:59:40;14.63;;;10.37;;
8592;SDS011;4334;49.982;8.398;2023-03-01T12:05:36;16.10;;;10.83;;
8592;SDS011;4334;49.982;8.398;2023-03-01T12:08:24;15.87;;;10.70;;
8592;SDS011;4334;49.982;8.398;2023-03-01T12:11:00;19.37;;;10.23;;
8592;SDS011;4334;49.982;8.398;2023-03-01T12:13:39;14.37;;;10.73;;
8592;SDS011;4334;49.982;8.398;2023-03-01T12:16:22;12.60;;;9.50;;
8592;SDS011;4334;49.982;8.398;2023-03-01T12:19:21;16.87;;;11.07;;
8592;SDS011;4334;49.982;8.398;2023-03-01T12:22:13;14.77;;;9.70;;
8592;SDS011;4334;49.982;8.398;2023-03-01T12:25:07;15.10;;;10.53;;
8592;SDS011;4334;49.982;8.398;2023-03-01T12:30:53;12.43;;;9.27;;
8592;SDS011;4334;49.982;8.398;2023-03-01T12:33:34;14.27;;;9.13;;
8592;SDS011;4334;49.982;8.398;2023-03-01T12:36:20;12.27;;;9.53;;
8592;SDS011;4334;49.982;8.398;2023-03-01T12:38:59;14.33;;;9.77;;
8592;SDS011;4334;49.982;8.398;2023-03-01T12:41:41;13.63;;;9.47;;
8592;SDS011;4334;49.982;8.398;2023-03-01T12:44:25;13.00;;;9.37;;
8592;SDS011;4334;49.982;8.398;2023-03-01T12:47:14;13.70;;;8.90;;
8592;SDS011;4334;49.982;8.398;2023-03-01T12:49:54;13.70;;;9.50;;
8592;SDS011;4334;49.982;8.398;2023-03-01T12:52:26;12.67;;;9.10;;
8592;SDS011;4334;49.982;8.398;2023-03-01T12:54:59;13.37;;;9.40;;
8592;SDS011;4334;49.982;8.398;2023-03-01T12:57:29;14.50;;;9.03;;
8592;SDS011;4334;49.982;8.398;2023-03-01T13:00:10;12.00;;;8.80;;
8592;SDS011;4334;49.982;8.398;2023-03-01T13:02:49;18.37;;;9.33;;
8592;SDS011;4334;49.982;8.398;2023-03-01T13:05:24;13.90;;;9.20;;
8592;SDS011;4334;49.982;8.398;2023-03-01T13:08:01;13.53;;;9.30;;
8592;SDS011;4334;49.982;8.398;2023-03-01T13:10:39;12.97;;;8.80;;
8592;SDS011;4334;49.982;8.398;2023-03-01T13:13:13;11.30;;;8.77;;
8592;SDS011;4334;49.982;8.398;2023-03-01T13:15:46;12.00;;;8.33;;
8592;SDS011;4334;49.982;8.398;2023-03-01T13:18:27;12.27;;;9.00;;
8592;SDS011;4334;49.982;8.398;2023-03-01T13:20:57;14.83;;;8.27;;
8592;SDS011;4334;49.982;8.398;2023-03-01T13:23:27;12.67;;;8.50;;
8592;SDS011;4334;49.982;8.398;2023-03-01T13:26:09;12.33;;;8.53;;
8592;SDS011;4334;49.982;8.398;2023-03-01T13:28:46;13.70;;;9.10;;
8592;SDS011;4334;49.982;8.398;2023-03-01T13:45:55;9.63;;;7.63;;
8592;SDS011;4334;49.982;8.398;2023-03-01T13:48:23;11.10;;;7.77;;
8592;SDS011;4334;49.982;8.398;2023-03-01T13:50:55;10.17;;;7.90;;
8592;SDS011;4334;49.982;8.398;2023-03-01T13:53:26;11.80;;;8.07;;
8592;SDS011;4334;49.982;8.398;2023-03-01T13:55:57;10.53;;;7.87;;
8592;SDS011;4334;49.982;8.398;2023-03-01T13:58:28;11.53;;;8.37;;
8592;SDS011;4334;49.982;8.398;2023-03-01T14:00:57;12.30;;;8.83;;
8592;SDS011;4334;49.982;8.398;2023-03-01T14:03:25;10.03;;;8.03;;
8592;SDS011;4334;49.982;8.398;2023-03-01T14:05:59;16.13;;;8.80;;
8592;SDS011;4334;49.982;8.398;2023-03-01T14:08:28;10.13;;;7.60;;
8592;SDS011;4334;49.982;8.398;2023-03-01T14:14:20;10.77;;;7.87;;
8592;SDS011;4334;49.982;8.398;2023-03-01T14:17:15;11.87;;;7.80;;
8592;SDS011;4334;49.982;8.398;2023-03-01T14:20:02;10.03;;;7.40;;
8592;SDS011;4334;49.982;8.398;2023-03-01T14:22:36;9.97;;;7.60;;
8592;SDS011;4334;49.982;8.398;2023-03-01T14:25:16;10.20;;;8.03;;
8592;SDS011;4334;49.982;8.398;2023-03-01T14:27:50;10.13;;;7.33;;
8592;SDS011;4334;49.982;8.398;2023-03-01T14:30:21;8.63;;;6.77;;
8592;SDS011;4334;49.982;8.398;2023-03-01T14:32:52;8.47;;;7.20;;
8592;SDS011;4334;49.982;8.398;2023-03-01T14:35:20;10.43;;;7.60;;
8592;SDS011;4334;49.982;8.398;2023-03-01T14:37:50;11.20;;;8.00;;
8592;SDS011;4334;49.982;8.398;2023-03-01T14:40:21;15.67;;;7.93;;
8592;SDS011;4334;49.982;8.398;2023-03-01T14:42:50;13.90;;;8.57;;
8592;SDS011;4334;49.982;8.398;2023-03-01T14:45:18;10.83;;;7.77;;
8592;SDS011;4334;49.982;8.398;2023-03-01T14:47:45;12.90;;;7.90;;
8592;SDS011;4334;49.982;8.398;2023-03-01T14:50:15;11.03;;;8.07;;
8592;SDS011;4334;49.982;8.398;2023-03-01T14:52:48;12.20;;;8.23;;
8592;SDS011;4334;49.982;8.398;2023-03-01T14:55:20;10.93;;;7.93;;
8592;SDS011;4334;49.982;8.398;2023-03-01T14:57:51;10.50;;;7.47;;
8592;SDS011;4334;49.982;8.398;2023-03-01T15:00:20;10.87;;;7.60;;
8592;SDS011;4334;49.982;8.398;2023-03-01T15:02:50;10.80;;;7.50;;
8592;SDS011;4334;49.982;8.398;2023-03-01T15:05:25;11.43;;;7.80;;
8592;SDS011;4334;49.982;8.398;2023-03-01T15:07:59;12.03;;;7.97;;
8592;SDS011;4334;49.982;8.398;2023-03-01T15:10:29;10.20;;;7.40;;
8592;SDS011;4334;49.982;8.398;2023-03-01T15:13:09;10.20;;;7.73;;
8592;SDS011;4334;49.982;8.398;2023-03-01T15:15:38;13.63;;;8.10;;
8592;SDS011;4334;49.982;8.398;2023-03-01T15:18:13;11.80;;;8.00;;
8592;SDS011;4334;49.982;8.398;2023-03-01T15:20:42;11.37;;;7.80;;
8592;SDS011;4334;49.982;8.398;2023-03-01T15:23:22;11.40;;;7.30;;
8592;SDS011;4334;49.982;8.398;2023-03-01T15:25:50;9.73;;;7.60;;
8592;SDS011;4334;49.982;8.398;2023-03-01T15:28:23;11.87;;;7.70;;
8592;SDS011;4334;49.982;8.398;2023-03-01T15:30:55;12.37;;;8.47;;
8592;SDS011;4334;49.982;8.398;2023-03-01T15:36:32;11.50;;;7.63;;